Hillandale, Maryland
Current Conditions -  °F | °C
As of 10:50 PM on Thursday 18 Dec 2014 (Local Time) from KCGS Reporting Station
Broken Clouds Broken Clouds  
Wind Chill:   Ceiling: 11000
Heat Index:   Visibility: 10mi
Dew Point: -5°   Wind: 5mph
Humidity: 60%   Direction: 320°NW
Pressure: 30.12"   Gusts: NA
Location:  39.0169°N, 76.9848°W
Report Text: KCGS 190350Z AUTO 32004KT 10SM BKN110 02/M05 A3012 RMK AO1
Loading
Personal Weather Stations






























Interactive Weather Map New forecast layout! Learn more

10-Day Weather Forecast

Advertisements
Track Severe Weather on mobile